Quick Links (Output Below):   Max & Min Temps   /   Climate Reports   /   Zone Forecasts
River Forecasts   /   Forestry Forecasts   /   Aviation Forecasts   /   Radars   /   Features

Terminal Aerodrome Forecast (Mountain Home)

Pick a Site:
Arkadelphia | El Dorado | Fayetteville | Fort Smith | Harrison | Highfill | Hot Springs | Jonesboro
Little Rock | Monticello | Mountain Home | Pine Bluff | Texarkana
 Forecast 

KBPK 281140Z 2812/2912 15005KT P6SM SCT250
     FM281600 18012G18KT P6SM SCT035 SCT250
     FM290100 17009KT P6SM SCT250 WS020/19035KT
     FM290800 19008KT P6SM BKN025 WS020/20040KT=


 Latest METARs (Observations) 
How to Decode METARs
14Z KBPK 281353Z AUTO 17007KT 8SM CLR 02/M02 A3023 RMK AO2 SLP243
         T00221022
         
13Z KBPK 281253Z AUTO 16006KT 8SM CLR 00/M03 A3025 RMK AO2 SLP249
         T00001028
         
12Z KBPK 281153Z AUTO 14003KT 8SM CLR M01/M03 A3026 RMK AO2 SLP252
         T10061033 10006 21011 56020
         
11Z KBPK 281053Z AUTO 15004KT 8SM CLR M01/M04 A3027 RMK AO2 SLP256
         T10111039
         
10Z KBPK 280953Z AUTO 14004KT 8SM CLR M01/M04 A3029 RMK AO2 SLP263
         T10061039
         
09Z KBPK 280853Z AUTO 14004KT 9SM CLR M01/M04 A3032 RMK AO2 SLP272
         T10061039 55009
         
08Z KBPK 280753Z AUTO 13004KT 9SM CLR M01/M04 A3032 RMK AO2 SLP272
         T10061044
         
07Z KBPK 280653Z AUTO 13004KT 9SM CLR 00/M04 A3034 RMK AO2 SLP278
         T00001044
         
06Z KBPK 280553Z AUTO 12004KT 9SM CLR 01/M04 A3035 RMK AO2 SLP282
         T00061044 10028 20000 400670000 58017
         
05Z KBPK 280453Z AUTO 13005KT 9SM CLR 01/M04 A3036 RMK AO2 SLP287
         T00061044
         
***** Today's Observations (Above) *****


Back to Main Page
http://www.srh.noaa.gov/lzk/qfcst.php

USA.gov is the U.S. government's official web portal to all federal, state and local government web resources and services.